Time;durP1;ratioP1;P1;durP2;ratioP2;P2;SDS_P1;SDS_P2;PMS_P1;PMS_P2;Temp;Humidity;BMP_temperature;BMP_pressure;BME280_temperature;BME280_humidity;BME280_pressure;Samples;Min_cycle;Max_cycle;Signal;HPM_P1;HPM_P2
2023/08/02 00:00:11;;;;;;;2.55;2.28;;;20.50;99.90;;;;;;4160931;28;20029;-60
2023/08/02 00:02:13;;;;;;;3.22;2.50;;;20.40;99.90;;;;;;4161038;28;20095;-61
2023/08/02 00:04:14;;;;;;;2.80;2.15;;;20.40;99.90;;;;;;4160480;28;20029;-62
2023/08/02 00:06:16;;;;;;;2.83;2.58;;;20.40;99.90;;;;;;4161243;28;20041;-61
2023/08/02 00:08:17;;;;;;;6.72;2.78;;;20.40;99.90;;;;;;4160344;28;20068;-62
2023/08/02 00:10:18;;;;;;;7.03;2.80;;;20.40;99.90;;;;;;4161447;28;20096;-64
2023/08/02 00:12:19;;;;;;;2.65;2.42;;;20.40;99.90;;;;;;4160486;28;20121;-62
2023/08/02 00:14:20;;;;;;;4.65;2.70;;;20.30;99.90;;;;;;4161464;28;20041;-62
2023/08/02 00:16:22;;;;;;;4.50;2.47;;;20.30;99.90;;;;;;4160506;28;20456;-61
2023/08/02 00:18:23;;;;;;;3.03;2.40;;;20.30;99.90;;;;;;4161216;28;20560;-62
2023/08/02 00:20:24;;;;;;;5.70;2.67;;;20.30;99.90;;;;;;4160596;28;20084;-61
2023/08/02 00:22:25;;;;;;;3.40;2.08;;;20.30;99.90;;;;;;4160582;28;20547;-61
2023/08/02 00:24:26;;;;;;;3.03;2.47;;;20.30;99.90;;;;;;4159409;28;20061;-62
2023/08/02 00:26:28;;;;;;;2.90;2.42;;;20.30;99.90;;;;;;4144870;28;20041;-61
2023/08/02 00:28:29;;;;;;;10.55;3.10;;;20.30;99.90;;;;;;4144117;28;20163;-62
2023/08/02 00:30:30;;;;;;;4.32;2.88;;;20.20;99.90;;;;;;4145837;28;20088;-62
2023/08/02 00:32:32;;;;;;;5.13;2.50;;;20.20;99.90;;;;;;4160363;28;20033;-61
2023/08/02 00:34:33;;;;;;;5.63;2.28;;;20.10;99.90;;;;;;4160228;28;20088;-61
2023/08/02 00:36:34;;;;;;;4.97;2.78;;;20.10;99.90;;;;;;4160766;28;20041;-62
2023/08/02 00:38:35;;;;;;;21.08;5.20;;;20.10;99.90;;;;;;4160595;28;20088;-61
2023/08/02 00:40:36;;;;;;;10.85;3.35;;;20.10;99.90;;;;;;4161357;28;20034;-62
2023/08/02 00:42:37;;;;;;;19.13;4.75;;;20.00;99.90;;;;;;4160415;28;20575;-64
2023/08/02 00:44:38;;;;;;;7.78;3.03;;;20.00;99.90;;;;;;4161326;28;20076;-63
2023/08/02 00:46:40;;;;;;;4.80;2.80;;;20.00;99.90;;;;;;4159966;28;20072;-61
2023/08/02 00:48:43;;;;;;;4.45;2.92;;;19.90;99.90;;;;;;4159630;28;20030;-61
2023/08/02 00:50:44;;;;;;;5.55;2.60;;;19.90;99.90;;;;;;4160276;28;20103;-61
2023/08/02 00:52:45;;;;;;;5.68;2.53;;;19.90;99.90;;;;;;4161173;28;20060;-61
2023/08/02 00:54:48;;;;;;;2.63;2.10;;;19.90;99.90;;;;;;4159591;28;20103;-61
2023/08/02 00:56:49;;;;;;;4.05;2.30;;;19.80;99.90;;;;;;4161075;28;20088;-61
2023/08/02 00:58:50;;;;;;;4.45;2.50;;;19.80;99.90;;;;;;4164340;28;20134;-61
2023/08/02 01:00:52;;;;;;;3.15;2.58;;;19.80;99.90;;;;;;4166374;28;20068;-62
2023/08/02 01:02:53;;;;;;;4.55;2.55;;;19.80;99.90;;;;;;4165925;28;20092;-61
2023/08/02 01:04:54;;;;;;;5.15;2.60;;;19.80;99.90;;;;;;4166151;28;20037;-62
2023/08/02 01:07:07;;;;;;;4.35;2.90;;;19.80;99.90;;;;;;4166009;28;20033;-61
2023/08/02 01:09:18;;;;;;;4.80;2.42;;;19.70;99.90;;;;;;4166123;28;20029;-61
2023/08/02 01:11:26;;;;;;;3.47;2.55;;;19.70;99.90;;;;;;4165571;28;20470;-62
2023/08/02 01:13:30;;;;;;;3.38;2.28;;;19.80;99.90;;;;;;4165642;28;20075;-62
2023/08/02 01:15:34;;;;;;;3.75;2.38;;;19.80;99.90;;;;;;4165870;28;20075;-62
2023/08/02 01:17:36;;;;;;;3.03;2.40;;;19.70;99.90;;;;;;4165383;28;20022;-62
2023/08/02 01:19:37;;;;;;;4.40;2.75;;;19.70;99.90;;;;;;4166554;28;20151;-62
2023/08/02 01:21:39;;;;;;;7.10;2.92;;;19.70;99.90;;;;;;4165293;28;20079;-62
2023/08/02 01:23:40;;;;;;;5.72;2.72;;;19.70;99.90;;;;;;4166145;28;20033;-63
2023/08/02 01:25:45;;;;;;;3.45;3.15;;;19.70;99.90;;;;;;4164831;28;20038;-61
2023/08/02 01:27:51;;;;;;;5.80;2.58;;;19.70;99.90;;;;;;4165376;28;20452;-60
2023/08/02 01:29:52;;;;;;;3.05;2.50;;;19.70;99.90;;;;;;4164876;28;20037;-61
2023/08/02 01:31:56;;;;;;;5.00;2.30;;;19.70;99.90;;;;;;4158898;28;20045;-60
2023/08/02 01:33:59;;;;;;;6.00;2.75;;;19.70;99.90;;;;;;4163640;28;20021;-62
2023/08/02 01:36:00;;;;;;;4.85;2.95;;;19.70;99.90;;;;;;4166008;28;20029;-61
2023/08/02 01:38:01;;;;;;;7.18;2.90;;;19.80;99.90;;;;;;4164913;28;20030;-63
2023/08/02 01:40:03;;;;;;;6.25;3.00;;;19.70;99.90;;;;;;4166657;28;20425;-62
2023/08/02 01:42:04;;;;;;;3.80;3.08;;;19.70;99.90;;;;;;4165596;28;20429;-61
2023/08/02 01:44:06;;;;;;;6.85;3.03;;;19.60;99.90;;;;;;4166146;28;20045;-63
2023/08/02 01:46:07;;;;;;;3.90;2.90;;;19.60;99.90;;;;;;4165404;28;20029;-62
2023/08/02 01:48:08;;;;;;;4.13;2.78;;;19.60;99.90;;;;;;4165431;28;20180;-61
2023/08/02 01:50:09;;;;;;;7.32;3.30;;;19.50;99.90;;;;;;4165955;28;20424;-62
2023/08/02 01:52:10;;;;;;;4.32;2.80;;;19.50;99.90;;;;;;4165097;28;20087;-62
2023/08/02 01:54:11;;;;;;;4.57;3.10;;;19.50;99.90;;;;;;4166032;28;20083;-63
2023/08/02 01:56:12;;;;;;;4.35;3.17;;;19.60;99.90;;;;;;4164717;28;20041;-62
2023/08/02 01:58:14;;;;;;;6.47;3.80;;;19.60;99.90;;;;;;4166417;28;20095;-62
2023/08/02 02:00:15;;;;;;;5.25;3.80;;;19.60;99.90;;;;;;4164960;28;20477;-61
2023/08/02 02:02:16;;;;;;;5.25;3.20;;;19.70;99.90;;;;;;4166225;28;20033;-61
2023/08/02 02:04:17;;;;;;;6.25;3.35;;;19.70;99.90;;;;;;4164953;28;20465;-62
2023/08/02 02:06:18;;;;;;;4.65;3.75;;;19.70;99.90;;;;;;4166073;28;20041;-61
2023/08/02 02:08:20;;;;;;;6.45;3.63;;;19.70;99.90;;;;;;4164654;28;20118;-61
2023/08/02 02:10:21;;;;;;;7.30;3.60;;;19.60;99.90;;;;;;4162997;28;20544;-63
2023/08/02 02:12:22;;;;;;;4.57;3.53;;;19.60;99.90;;;;;;4162396;28;20071;-63
2023/08/02 02:14:24;;;;;;;8.23;3.50;;;19.60;99.90;;;;;;4163079;28;20111;-63
2023/08/02 02:16:25;;;;;;;9.35;4.63;;;19.60;99.90;;;;;;4162651;28;20022;-61
2023/08/02 02:18:26;;;;;;;5.03;3.53;;;19.50;99.90;;;;;;4162676;28;20052;-62
2023/08/02 02:20:27;;;;;;;7.60;3.38;;;19.50;99.90;;;;;;4162900;28;20091;-62
2023/08/02 02:22:28;;;;;;;5.22;3.33;;;19.50;99.90;;;;;;4162119;28;20068;-62
2023/08/02 02:24:29;;;;;;;3.97;3.53;;;19.40;99.90;;;;;;4163296;28;20175;-61
2023/08/02 02:26:31;;;;;;;5.13;4.03;;;19.40;99.90;;;;;;4162209;28;20037;-62
2023/08/02 02:28:32;;;;;;;6.68;3.70;;;19.40;99.90;;;;;;4162601;28;20045;-62
2023/08/02 02:30:33;;;;;;;6.75;4.15;;;19.40;99.90;;;;;;4161671;28;20049;-63
2023/08/02 02:32:34;;;;;;;10.10;4.50;;;19.40;99.90;;;;;;4162431;28;20417;-62
2023/08/02 02:34:35;;;;;;;17.70;11.07;;;19.40;99.90;;;;;;4161604;28;20033;-62
2023/08/02 02:36:38;;;;;;;9.77;4.50;;;19.40;99.90;;;;;;4163279;28;20543;-61
2023/08/02 02:38:39;;;;;;;4.60;3.67;;;19.40;99.90;;;;;;4162294;28;20371;-61
2023/08/02 02:40:40;;;;;;;6.07;3.60;;;19.40;99.90;;;;;;4163013;28;20029;-62
2023/08/02 02:42:41;;;;;;;9.55;4.35;;;19.40;99.90;;;;;;4162148;28;20406;-62
2023/08/02 02:44:44;;;;;;;7.95;4.70;;;19.40;99.90;;;;;;4162394;28;20045;-61
2023/08/02 02:46:46;;;;;;;8.82;5.10;;;19.40;99.90;;;;;;4162035;28;20021;-61
2023/08/02 02:48:47;;;;;;;8.32;4.60;;;19.40;99.90;;;;;;4162253;28;20053;-61
2023/08/02 02:50:48;;;;;;;5.05;4.05;;;19.30;99.90;;;;;;4162252;28;20026;-61
2023/08/02 02:52:49;;;;;;;7.15;4.68;;;19.30;99.90;;;;;;4161422;28;20084;-61
2023/08/02 02:54:50;;;;;;;5.03;4.20;;;19.30;99.90;;;;;;4162630;28;20108;-62
2023/08/02 02:56:51;;;;;;;8.27;4.05;;;19.30;99.90;;;;;;4161579;28;20572;-61
2023/08/02 02:58:52;;;;;;;7.63;4.28;;;19.30;99.90;;;;;;4162345;28;20033;-62
2023/08/02 03:00:56;;;;;;;5.93;4.82;;;19.30;99.90;;;;;;4161359;28;20452;-61
2023/08/02 03:02:57;;;;;;;6.03;4.97;;;19.30;99.90;;;;;;4162638;28;20488;-61
2023/08/02 03:04:58;;;;;;;4.38;3.97;;;19.30;99.90;;;;;;4161433;28;20030;-62
2023/08/02 03:06:59;;;;;;;4.32;3.92;;;19.30;99.90;;;;;;4162807;28;20034;-62
2023/08/02 03:09:00;;;;;;;7.03;4.80;;;19.30;99.90;;;;;;4161787;28;20107;-61
2023/08/02 03:11:02;;;;;;;8.13;4.78;;;19.30;99.90;;;;;;4162955;28;20489;-60
2023/08/02 03:13:03;;;;;;;7.60;4.05;;;19.30;99.90;;;;;;4161345;28;20029;-61
2023/08/02 03:15:04;;;;;;;5.47;4.50;;;19.20;99.90;;;;;;4160969;28;20159;-62
2023/08/02 03:17:06;;;;;;;5.68;4.07;;;19.10;99.90;;;;;;4161666;28;20033;-61
2023/08/02 03:19:07;;;;;;;4.85;4.35;;;19.00;99.90;;;;;;4161909;28;20034;-61
2023/08/02 03:21:08;;;;;;;7.72;4.47;;;18.90;99.90;;;;;;4161189;28;20071;-63
2023/08/02 03:23:09;;;;;;;5.10;4.60;;;18.80;99.90;;;;;;4161052;28;20514;-62
2023/08/02 03:25:10;;;;;;;6.40;4.68;;;18.70;99.90;;;;;;4161998;28;20037;-61
2023/08/02 03:27:11;;;;;;;7.90;5.53;;;18.70;99.90;;;;;;4161043;28;20033;-61
2023/08/02 03:29:12;;;;;;;11.20;7.50;;;18.60;99.90;;;;;;4162444;28;20072;-63
2023/08/02 03:31:13;;;;;;;7.13;5.75;;;18.50;99.90;;;;;;4160169;28;20099;-63
2023/08/02 03:33:15;;;;;;;6.28;5.55;;;18.50;99.90;;;;;;4160279;28;20041;-62
2023/08/02 03:35:16;;;;;;;8.15;6.10;;;18.50;99.90;;;;;;4144677;28;20038;-61
2023/08/02 03:37:17;;;;;;;9.85;6.45;;;18.50;99.90;;;;;;4146572;28;20042;-62
2023/08/02 03:39:18;;;;;;;7.85;5.68;;;18.50;99.90;;;;;;4161084;28;20215;-61
2023/08/02 03:41:20;;;;;;;10.27;6.03;;;18.50;99.90;;;;;;4161856;28;20497;-62
2023/08/02 03:43:21;;;;;;;8.10;5.80;;;18.50;99.90;;;;;;4160841;28;20079;-62
2023/08/02 03:45:22;;;;;;;7.75;5.25;;;18.50;99.90;;;;;;4161541;28;20018;-62
2023/08/02 03:47:23;;;;;;;10.85;6.50;;;18.50;99.90;;;;;;4161332;28;20579;-61
2023/08/02 03:49:24;;;;;;;9.07;6.93;;;18.50;99.90;;;;;;4159339;28;20096;-60
2023/08/02 03:51:27;;;;;;;9.10;6.90;;;18.50;99.90;;;;;;4161387;28;20547;-61
2023/08/02 03:53:30;;;;;;;13.80;7.25;;;18.50;99.90;;;;;;4160903;28;20021;-61
2023/08/02 03:55:31;;;;;;;15.73;7.45;;;18.40;99.90;;;;;;4160884;28;20183;-61
2023/08/02 03:57:32;;;;;;;11.70;7.13;;;18.40;99.90;;;;;;4159603;28;20045;-62
2023/08/02 03:59:33;;;;;;;12.57;9.02;;;18.40;99.90;;;;;;4161104;28;20148;-60
2023/08/02 04:01:34;;;;;;;18.83;10.85;;;18.50;99.90;;;;;;4159570;28;20021;-61
2023/08/02 04:03:35;;;;;;;13.60;9.75;;;18.50;99.90;;;;;;4160284;28;20136;-61
2023/08/02 04:05:36;;;;;;;19.23;9.95;;;18.50;99.90;;;;;;4160120;28;20042;-62
2023/08/02 04:07:38;;;;;;;17.85;8.73;;;18.50;99.90;;;;;;4161408;28;20030;-61
2023/08/02 04:09:39;;;;;;;20.73;10.77;;;18.50;99.90;;;;;;4160821;28;20106;-62
2023/08/02 04:11:40;;;;;;;24.85;14.07;;;18.60;99.90;;;;;;4160675;28;20119;-62
2023/08/02 04:13:41;;;;;;;31.67;16.27;;;18.60;99.90;;;;;;4160589;28;20042;-61
2023/08/02 04:15:42;;;;;;;16.77;8.45;;;18.70;99.90;;;;;;4161412;28;20489;-62
2023/08/02 04:17:43;;;;;;;18.23;12.15;;;18.70;99.90;;;;;;4156869;28;20030;-60
2023/08/02 04:19:44;;;;;;;16.10;9.57;;;18.70;99.90;;;;;;4159421;28;20037;-61
2023/08/02 04:21:47;;;;;;;8.77;5.55;;;18.80;99.90;;;;;;4160244;28;20042;-61
2023/08/02 04:23:50;;;;;;;13.13;6.22;;;18.80;99.90;;;;;;4160129;28;20109;-60
2023/08/02 04:25:51;;;;;;;6.70;5.45;;;18.80;99.90;;;;;;4160871;28;20433;-64
2023/08/02 04:27:52;;;;;;;9.85;6.13;;;18.80;99.90;;;;;;4159492;28;20112;-61
2023/08/02 04:29:53;;;;;;;13.13;7.38;;;18.90;99.90;;;;;;4161009;28;20049;-61
2023/08/02 04:31:54;;;;;;;17.27;11.13;;;18.90;99.90;;;;;;4152445;28;20389;-60
2023/08/02 04:33:56;;;;;;;14.05;9.40;;;18.80;99.90;;;;;;4161267;28;20079;-62
2023/08/02 04:36:00;;;;;;;8.82;6.18;;;18.90;99.90;;;;;;4160032;28;20053;-61
2023/08/02 04:38:02;;;;;;;9.63;5.25;;;18.90;99.90;;;;;;4161111;28;20033;-64
2023/08/02 04:40:03;;;;;;;11.13;6.28;;;18.90;99.90;;;;;;4157746;28;20041;-62
2023/08/02 04:42:04;;;;;;;14.38;6.82;;;18.90;99.90;;;;;;4160808;28;20049;-63
2023/08/02 04:44:06;;;;;;;8.02;5.13;;;18.90;99.90;;;;;;4159352;28;20041;-65
2023/08/02 04:46:07;;;;;;;11.00;5.88;;;18.90;99.90;;;;;;4160980;28;20029;-61
2023/08/02 04:48:08;;;;;;;14.57;6.43;;;18.90;99.90;;;;;;4160173;28;20126;-60
2023/08/02 04:50:09;;;;;;;8.95;5.38;;;18.80;99.90;;;;;;4160718;28;20103;-61
2023/08/02 04:52:10;;;;;;;9.25;5.75;;;18.90;99.90;;;;;;4160155;28;20021;-60
2023/08/02 04:54:11;;;;;;;7.95;5.82;;;18.90;99.90;;;;;;4160643;28;20052;-65
2023/08/02 04:56:12;;;;;;;10.25;6.88;;;18.90;99.90;;;;;;4160736;28;20572;-62
2023/08/02 04:58:14;;;;;;;20.83;14.00;;;19.00;99.90;;;;;;4160047;28;20109;-62
2023/08/02 05:00:15;;;;;;;18.15;11.18;;;18.90;99.90;;;;;;4160910;28;20083;-61
2023/08/02 05:02:18;;;;;;;12.20;7.70;;;18.90;99.90;;;;;;4159565;28;20037;-61
2023/08/02 05:04:20;;;;;;;18.77;7.15;;;19.00;99.90;;;;;;4161049;28;20034;-62
2023/08/02 05:06:21;;;;;;;13.55;7.95;;;19.00;99.90;;;;;;4160247;28;20087;-62
2023/08/02 05:08:24;;;;;;;13.43;5.85;;;19.10;99.90;;;;;;4160774;28;20045;-63
2023/08/02 05:10:25;;;;;;;8.98;5.38;;;19.10;99.90;;;;;;4158900;28;20034;-61
2023/08/02 05:12:26;;;;;;;13.68;5.90;;;19.10;99.90;;;;;;4159512;28;20083;-62
2023/08/02 05:14:28;;;;;;;14.57;6.47;;;19.10;99.90;;;;;;4155395;28;20071;-63
2023/08/02 05:16:29;;;;;;;15.73;6.38;;;19.20;99.90;;;;;;4171324;28;20049;-62
2023/08/02 05:18:31;;;;;;;13.50;6.28;;;19.20;99.90;;;;;;4166287;28;20324;-61
2023/08/02 05:20:33;;;;;;;11.88;6.00;;;19.30;99.90;;;;;;4162404;28;20463;-62
2023/08/02 05:22:34;;;;;;;10.65;7.28;;;19.30;99.90;;;;;;4167198;28;20052;-62
2023/08/02 05:24:35;;;;;;;9.65;5.65;;;19.30;99.90;;;;;;4159964;28;20099;-61
2023/08/02 05:26:36;;;;;;;8.93;6.22;;;19.30;99.90;;;;;;4163488;28;20186;-61
2023/08/02 05:28:37;;;;;;;15.07;6.65;;;19.30;99.90;;;;;;4162946;28;20440;-61
2023/08/02 05:30:38;;;;;;;6.50;5.03;;;19.40;99.90;;;;;;4160842;28;20041;-61
2023/08/02 05:32:39;;;;;;;12.32;6.22;;;19.30;99.90;;;;;;4163542;28;20029;-61
2023/08/02 05:34:40;;;;;;;9.00;5.20;;;19.20;99.90;;;;;;4175045;28;20033;-62
2023/08/02 05:36:42;;;;;;;7.82;5.30;;;19.30;99.90;;;;;;4174889;28;20029;-63
2023/08/02 05:38:43;;;;;;;7.70;4.90;;;19.20;99.90;;;;;;4160924;28;20041;-62
2023/08/02 05:40:44;;;;;;;10.25;5.80;;;19.10;99.90;;;;;;4159625;28;20022;-60
2023/08/02 05:42:45;;;;;;;9.30;5.60;;;19.10;99.90;;;;;;4160853;28;20063;-61
2023/08/02 05:44:46;;;;;;;9.73;5.80;;;19.10;99.90;;;;;;4158429;28;20632;-61
2023/08/02 05:46:48;;;;;;;6.65;5.40;;;19.10;99.90;;;;;;4163764;28;20041;-62
2023/08/02 05:48:50;;;;;;;8.88;4.90;;;19.10;99.90;;;;;;4176370;28;20041;-60
2023/08/02 05:50:51;;;;;;;7.85;5.50;;;19.10;99.90;;;;;;4179843;28;20033;-61
2023/08/02 05:52:52;;;;;;;9.93;5.53;;;19.10;99.90;;;;;;4165920;28;20527;-60
2023/08/02 05:54:53;;;;;;;6.00;5.03;;;19.20;99.90;;;;;;4162484;28;20041;-64
2023/08/02 05:56:54;;;;;;;11.27;5.88;;;19.10;99.90;;;;;;4163417;28;20045;-62
2023/08/02 05:58:55;;;;;;;6.82;5.68;;;19.00;99.90;;;;;;4162794;28;20056;-60
2023/08/02 06:00:56;;;;;;;11.45;6.10;;;18.90;99.90;;;;;;4162237;28;20100;-67
2023/08/02 06:02:57;;;;;;;9.45;6.10;;;18.90;99.90;;;;;;4162088;28;20025;-60
2023/08/02 06:04:59;;;;;;;9.57;6.00;;;18.90;99.90;;;;;;4150376;28;20034;-60
2023/08/02 06:07:00;;;;;;;12.55;5.80;;;18.80;99.90;;;;;;4161401;28;20133;-61
2023/08/02 06:09:01;;;;;;;6.75;5.18;;;18.80;99.90;;;;;;4161411;28;20067;-62
2023/08/02 06:11:02;;;;;;;6.28;4.97;;;18.80;99.90;;;;;;4158677;28;20402;-61
2023/08/02 06:13:04;;;;;;;6.00;5.40;;;18.80;99.90;;;;;;4162639;28;20489;-63
2023/08/02 06:15:05;;;;;;;8.05;6.07;;;18.80;99.90;;;;;;4159571;28;20045;-61
2023/08/02 06:17:07;;;;;;;11.20;6.20;;;18.90;99.90;;;;;;4163454;28;20091;-61
2023/08/02 06:19:08;;;;;;;9.30;5.85;;;18.90;99.90;;;;;;4162252;28;20428;-61
2023/08/02 06:21:09;;;;;;;8.65;6.35;;;19.00;99.90;;;;;;4163076;28;20025;-60
2023/08/02 06:23:10;;;;;;;7.82;6.03;;;19.00;99.90;;;;;;4162655;28;20030;-61
2023/08/02 06:25:11;;;;;;;8.45;6.45;;;19.00;99.90;;;;;;4163111;28;20096;-60
2023/08/02 06:27:12;;;;;;;8.45;5.57;;;19.00;99.90;;;;;;4163076;28;20076;-61
2023/08/02 06:29:13;;;;;;;11.82;6.05;;;19.00;99.90;;;;;;4162680;28;20091;-60
2023/08/02 06:31:14;;;;;;;10.65;6.88;;;18.90;99.90;;;;;;4162894;28;20469;-61
2023/08/02 06:33:16;;;;;;;8.95;6.10;;;18.80;99.90;;;;;;4176504;28;20416;-61
2023/08/02 06:35:17;;;;;;;14.55;6.95;;;18.80;99.90;;;;;;4179574;28;20037;-61
2023/08/02 06:37:18;;;;;;;9.02;7.13;;;18.80;99.90;;;;;;4178346;28;20041;-60
2023/08/02 06:39:20;;;;;;;11.90;7.35;;;18.80;99.90;;;;;;4172976;28;20532;-61
2023/08/02 06:41:21;;;;;;;15.30;10.30;;;18.80;99.90;;;;;;4162554;28;20406;-61
2023/08/02 06:43:22;;;;;;;9.45;7.00;;;18.90;99.90;;;;;;4162727;28;20494;-60
2023/08/02 06:45:23;;;;;;;8.93;5.93;;;19.00;99.90;;;;;;4161855;28;20087;-61
2023/08/02 06:47:24;;;;;;;10.30;7.65;;;19.00;99.90;;;;;;4162280;28;20425;-61
2023/08/02 06:49:26;;;;;;;9.20;7.05;;;19.00;99.90;;;;;;4161922;28;20045;-61
2023/08/02 06:51:27;;;;;;;14.73;8.35;;;19.10;99.90;;;;;;4162799;28;20087;-61
2023/08/02 06:53:28;;;;;;;23.60;9.48;;;19.10;99.90;;;;;;4161962;28;20030;-61
2023/08/02 06:55:30;;;;;;;31.70;10.52;;;19.20;99.90;;;;;;4161816;28;20088;-61
2023/08/02 06:57:32;;;;;;;15.50;7.35;;;19.20;99.90;;;;;;4161650;28;20119;-61
2023/08/02 06:59:33;;;;;;;12.32;8.43;;;19.20;99.90;;;;;;4161740;28;20095;-61
2023/08/02 07:01:34;;;;;;;9.50;8.15;;;19.20;99.90;;;;;;4162208;28;20167;-61
2023/08/02 07:03:35;;;;;;;9.40;6.55;;;19.30;99.90;;;;;;4161753;28;20021;-61
2023/08/02 07:05:37;;;;;;;13.35;7.45;;;19.40;99.90;;;;;;4162490;28;20037;-60
2023/08/02 07:07:38;;;;;;;19.25;10.38;;;19.50;99.90;;;;;;4161061;28;20037;-60
2023/08/02 07:09:39;;;;;;;18.55;12.30;;;19.70;99.90;;;;;;4162657;28;20044;-61
2023/08/02 07:11:41;;;;;;;16.98;14.68;;;19.90;99.90;;;;;;4161747;28;20083;-61
2023/08/02 07:13:44;;;;;;;15.05;12.63;;;20.10;99.90;;;;;;4162500;28;20170;-61
2023/08/02 07:15:45;;;;;;;13.65;12.25;;;20.30;99.90;;;;;;4160225;28;20091;-61
2023/08/02 07:17:47;;;;;;;10.20;8.02;;;20.50;99.90;;;;;;4162258;28;20493;-61
2023/08/02 07:19:48;;;;;;;8.23;5.95;;;20.70;99.90;;;;;;4161583;28;20029;-61
2023/08/02 07:21:49;;;;;;;5.93;5.20;;;21.00;99.90;;;;;;4162599;28;20087;-62
2023/08/02 07:23:51;;;;;;;6.43;4.85;;;21.20;99.90;;;;;;4161363;28;20025;-64
2023/08/02 07:25:52;;;;;;;5.25;4.15;;;21.50;99.90;;;;;;4162136;28;20033;-61
2023/08/02 07:27:53;;;;;;;5.30;4.30;;;21.70;99.90;;;;;;4162044;28;20021;-61
2023/08/02 07:29:56;;;;;;;5.03;4.10;;;21.90;99.90;;;;;;4161729;28;20436;-62
2023/08/02 07:31:57;;;;;;;6.75;4.18;;;22.10;99.90;;;;;;4161900;28;20465;-61
2023/08/02 07:33:58;;;;;;;5.35;3.92;;;22.00;99.90;;;;;;4161291;28;20034;-61
2023/08/02 07:35:59;;;;;;;10.43;4.53;;;22.10;99.90;;;;;;4161816;28;20048;-61
2023/08/02 07:38:00;;;;;;;8.48;5.47;;;22.10;99.90;;;;;;4161013;28;20033;-61
2023/08/02 07:40:01;;;;;;;5.78;3.78;;;22.10;99.90;;;;;;4162107;28;20025;-60
2023/08/02 07:42:03;;;;;;;6.38;3.78;;;22.00;99.90;;;;;;4161547;28;20041;-62
2023/08/02 07:44:04;;;;;;;5.53;3.55;;;22.00;99.90;;;;;;4161967;28;20087;-61
2023/08/02 07:46:14;;;;;;;4.57;3.80;;;21.90;99.90;;;;;;4161022;28;20102;-62
2023/08/02 07:48:15;;;;;;;;;;;22.10;99.90;;;;;;4162489;28;20041;-61
2023/08/02 07:50:16;;;;;;;3.28;2.97;;;22.30;99.90;;;;;;4160803;28;20545;-61
2023/08/02 07:52:18;;;;;;;3.00;2.75;;;22.50;99.90;;;;;;4162231;28;20487;-61
2023/08/02 07:54:19;;;;;;;3.45;3.08;;;22.70;99.90;;;;;;4160989;28;20029;-63
2023/08/02 07:56:21;;;;;;;3.15;2.85;;;23.00;99.90;;;;;;4161355;28;20049;-62
2023/08/02 07:58:22;;;;;;;2.90;2.70;;;23.30;99.90;;;;;;4160592;28;20025;-61
2023/08/02 08:00:25;;;;;;;5.35;2.55;;;23.50;99.90;;;;;;4160228;28;20128;-61
2023/08/02 08:02:26;;;;;;;3.08;2.83;;;23.80;99.90;;;;;;4159816;28;20029;-61
2023/08/02 08:04:27;;;;;;;2.95;2.65;;;23.80;99.90;;;;;;4161012;28;20116;-61
2023/08/02 08:06:28;;;;;;;2.55;2.35;;;24.00;99.90;;;;;;4161359;28;20037;-61
2023/08/02 08:08:30;;;;;;;3.20;2.72;;;24.00;99.90;;;;;;4160094;28;20436;-61
2023/08/02 08:10:31;;;;;;;4.80;2.60;;;24.10;99.90;;;;;;4161881;28;20087;-61
2023/08/02 08:12:32;;;;;;;5.38;2.47;;;24.30;99.90;;;;;;4159716;28;20079;-61
2023/08/02 08:14:33;;;;;;;2.50;2.30;;;24.30;99.90;;;;;;4161489;28;20110;-61
2023/08/02 08:16:34;;;;;;;5.10;2.90;;;24.40;99.90;;;;;;4160384;28;20148;-61
2023/08/02 08:18:36;;;;;;;2.92;2.63;;;24.30;99.90;;;;;;4161348;28;20038;-61
2023/08/02 08:20:37;;;;;;;3.67;2.78;;;24.40;99.90;;;;;;4160074;28;20021;-60
2023/08/02 08:22:38;;;;;;;2.72;2.38;;;24.70;99.90;;;;;;4161445;28;20453;-61
2023/08/02 08:24:39;;;;;;;2.05;1.95;;;25.20;99.90;;;;;;4160672;28;20091;-61
2023/08/02 08:26:40;;;;;;;2.40;2.20;;;25.40;99.90;;;;;;4161370;28;20029;-61
2023/08/02 08:28:42;;;;;;;2.20;1.98;;;25.60;99.90;;;;;;4160446;28;20025;-61
2023/08/02 08:30:43;;;;;;;4.25;2.53;;;25.30;99.90;;;;;;4160175;28;20103;-62
2023/08/02 08:32:44;;;;;;;3.88;2.17;;;25.20;99.90;;;;;;4160176;28;20029;-62
2023/08/02 08:34:45;;;;;;;2.55;2.28;;;25.00;99.90;;;;;;4160557;28;20461;-61
2023/08/02 08:36:46;;;;;;;4.80;2.20;;;24.90;99.90;;;;;;4160377;28;20071;-60
2023/08/02 08:38:47;;;;;;;3.38;2.13;;;25.10;99.90;;;;;;4159746;28;20025;-61
2023/08/02 08:40:53;;;;;;;2.85;2.17;;;25.30;99.90;;;;;;4161332;28;20095;-61
2023/08/02 08:42:56;;;;;;;3.75;1.95;;;25.70;99.90;;;;;;4160598;28;20091;-62
2023/08/02 08:44:58;;;;;;;3.67;2.35;;;25.80;99.90;;;;;;4161005;28;20030;-63
2023/08/02 08:47:03;;;;;;;2.03;1.92;;;25.70;99.90;;;;;;4160332;28;20839;-62
2023/08/02 08:49:04;;;;;;;2.55;2.35;;;25.80;99.90;;;;;;4158108;28;20101;-61
2023/08/02 08:51:07;;;;;;;2.55;2.00;;;25.80;99.90;;;;;;4159448;28;20041;-60
2023/08/02 08:53:14;;;;;;;2.65;2.13;;;26.00;99.90;;;;;;4160624;28;20025;-61
2023/08/02 08:55:16;;;;;;;4.47;2.53;;;26.10;99.90;;;;;;4158590;28;20095;-61
2023/08/02 08:57:17;;;;;;;2.30;1.80;;;26.00;99.90;;;;;;4160511;28;20107;-62
2023/08/02 08:59:19;;;;;;;2.80;2.28;;;26.10;99.90;;;;;;4159463;28;20489;-62
2023/08/02 09:01:23;;;;;;;2.65;2.40;;;26.10;99.90;;;;;;4160328;28;20099;-61
2023/08/02 09:03:26;;;;;;;7.40;2.22;;;26.20;99.90;;;;;;4159671;28;20049;-61
2023/08/02 09:05:31;;;;;;;9.68;3.17;;;26.20;99.90;;;;;;4158770;28;20560;-61
2023/08/02 09:07:32;;;;;;;7.57;2.55;;;25.80;99.90;;;;;;4159695;28;20175;-60
2023/08/02 09:09:35;;;;;;;9.98;2.30;;;25.60;99.90;;;;;;4158037;28;20041;-60
2023/08/02 09:11:36;;;;;;;2.10;1.77;;;25.70;99.90;;;;;;4158867;28;20079;-61
2023/08/02 09:13:38;;;;;;;4.05;1.80;;;26.00;99.90;;;;;;4159862;28;20037;-59
2023/08/02 09:15:39;;;;;;;4.75;2.33;;;26.50;99.90;;;;;;4160292;28;20030;-61
2023/08/02 09:17:48;;;;;;;3.03;1.70;;;26.40;99.90;;;;;;4160020;28;20080;-61
2023/08/02 09:19:49;;;;;;;3.55;1.85;;;26.30;99.90;;;;;;4161877;28;20095;-58
2023/08/02 09:22:09;;;;;;;4.40;1.75;;;26.20;99.90;;;;;;4162687;28;20420;-61
2023/08/02 09:24:10;;;;;;;6.78;1.90;;;26.30;99.90;;;;;;4163015;28;20049;-61
2023/08/02 09:26:13;;;;;;;33.15;4.70;;;26.40;99.90;;;;;;4162554;28;20033;-67
2023/08/02 09:28:14;;;;;;;25.73;4.78;;;26.50;99.90;;;;;;4157873;28;20434;-62
2023/08/02 09:30:22;;;;;;;9.27;1.73;;;26.30;99.90;;;;;;4158907;28;20555;-62
2023/08/02 09:32:24;;;;;;;2.83;1.35;;;26.10;99.90;;;;;;4164170;28;20045;-62
2023/08/02 09:34:44;;;;;;;27.63;4.65;;;25.60;99.90;;;;;;4162023;28;20143;-62
2023/08/02 09:36:45;;;;;;;4.65;1.17;;;25.30;99.90;;;;;;4163474;28;20076;-62
2023/08/02 09:38:57;;;;;;;3.28;1.50;;;25.20;99.90;;;;;;4161671;28;20079;-62
2023/08/02 09:40:58;;;;;;;9.80;2.85;;;25.30;99.90;;;;;;4163782;28;20022;-63
2023/08/02 09:43:01;;;;;;;23.33;4.03;;;25.20;99.90;;;;;;4162902;28;20714;-62
2023/08/02 09:45:03;;;;;;;10.80;1.95;;;25.20;99.90;;;;;;4163208;28;20025;-62
2023/08/02 09:47:09;;;;;;;0.85;0.65;;;25.20;99.90;;;;;;4162466;28;20037;-62
2023/08/02 09:49:19;;;;;;;1.67;0.90;;;25.10;99.90;;;;;;4147369;28;20382;-64
2023/08/02 09:51:20;;;;;;;2.15;0.90;;;25.20;99.90;;;;;;4161531;28;20053;-62
2023/08/02 09:53:23;;;;;;;1.52;0.73;;;25.40;99.90;;;;;;4163493;28;20022;-61
2023/08/02 09:55:25;;;;;;;1.65;0.70;;;25.60;99.90;;;;;;4162164;28;20037;-61
2023/08/02 09:57:28;;;;;;;2.67;1.05;;;25.70;99.90;;;;;;4163574;28;20045;-61
2023/08/02 09:59:30;;;;;;;3.90;1.08;;;25.80;99.90;;;;;;4162479;28;20060;-62
2023/08/02 10:01:32;;;;;;;3.55;0.73;;;25.80;99.90;;;;;;4162934;28;20064;-62
2023/08/02 10:03:35;;;;;;;1.05;0.52;;;25.80;99.90;;;;;;4162829;28;20374;-62
2023/08/02 10:05:42;;;;;;;72.13;10.88;;;25.80;99.90;;;;;;4162671;28;20136;-62
2023/08/02 10:07:52;;;;;;;26.80;6.53;;;26.00;99.90;;;;;;4162755;28;20030;-62
2023/08/02 10:09:58;;;;;;;8.55;1.95;;;26.00;99.90;;;;;;4161703;28;20033;-63
2023/08/02 10:12:12;;;;;;;2.97;0.90;;;26.00;99.90;;;;;;4163715;28;20045;-61
2023/08/02 10:14:14;;;;;;;0.65;0.43;;;26.00;99.90;;;;;;4162771;28;20479;-61
2023/08/02 10:16:18;;;;;;;1.20;0.40;;;26.00;99.90;;;;;;4162678;28;20095;-61
2023/08/02 10:18:21;;;;;;;1.52;0.50;;;26.10;99.90;;;;;;4167226;28;20406;-61
2023/08/02 10:20:22;;;;;;;0.45;0.45;;;26.20;99.90;;;;;;4174558;28;20026;-62
2023/08/02 10:22:25;;;;;;;1.63;0.50;;;26.40;99.90;;;;;;4161609;28;20483;-61
2023/08/02 10:24:27;;;;;;;39.13;6.22;;;26.60;99.90;;;;;;4163188;28;20095;-61
2023/08/02 10:26:30;;;;;;;34.38;6.10;;;26.60;99.90;;;;;;4161534;28;20076;-62
2023/08/02 10:28:32;;;;;;;3.55;0.80;;;26.60;99.90;;;;;;4163067;28;20091;-62
2023/08/02 10:30:34;;;;;;;1.10;0.55;;;26.20;99.70;;;;;;4160629;28;20570;-61